Meteo Giornale » Osservazioni meteo Stati Uniti (USA) » Fort Myers Page Fld
ore: 14:38 - Osservazioni Meteo Fort Myers Page Fld
Lat. 26° 35' N Lon. 81° 51' W Alt. 5 metri s.l.m.
29 °C
Molto Nuvoloso
Temp. 24 Ore
25 °C
34 °C
Ovest/Sud-Ovest
16.7 Km/h
Dew point 23 °C
Umidità 70 %
Visibilità 10 Km
Il sole sorge alle ore 07:07
Il sole tramonta alle ore 19:47
| Data e Ora | Cielo e Fenomeni | T °C | DP °C | Um. % | Pres. hPa | Vis. km | Vento km/h | |
|---|---|---|---|---|---|---|---|---|
| Oggi h: 14:38 | Molto Nuvoloso | 29 | 23 | 70 | 1015 | 10 | O/SO 16.7 | |
| Oggi h: 14:23 | Temporale | 30 | 24 | 70 | 1015 | 10 | SO 18.5 | |
| Oggi h: 14:07 | Temporale nelle vicinanze | 31 | 24 | 66 | 1015 | 10 | O 16.7 | |
| Oggi h: 13:53 | Temporale | 33 | 23 | 55 | 1015 | 10 | N/NE 11.1 | |
| Oggi h: 13:33 | Temporale | 33 | 23 | 55 | 1015 | 10 | N 5.5 | |
| Oggi h: 12:53 | Poco Nuvoloso | 33 | 23 | 55 | 1016 | 10 | N 9.3 | |
| Oggi h: 11:53 | Nuvoloso | 32 | 23 | 59 | 1016 | 10 | NE 9.3 | |
| Oggi h: 10:53 | Sereno | 30 | 23 | 66 | 1016 | 10 | N 0 | |
| Oggi h: 09:53 | Sereno | 29 | 25 | 79 | 1016 | 10 | E/NE 7.4 | |
| Oggi h: 08:53 | Sereno | 27 | 24 | 83 | 1016 | 10 | E/NE 9.3 | |
| Oggi h: 07:53 | Sereno | 26 | 24 | 88 | 1015 | 10 | NE 9.3 | |
| Oggi h: 06:53 | Sereno | 26 | 24 | 88 | 1015 | 10 | E/NE 7.4 | |
| Oggi h: 05:53 | Sereno | 25 | 24 | 94 | 1015 | 10 | E/NE 7.4 | |
| Oggi h: 04:53 | Sereno | 26 | 24 | 88 | 1015 | 10 | NE 13 | |
| Oggi h: 03:53 | Sereno | 26 | 24 | 88 | 1015 | 10 | NE 9.3 | |
| Oggi h: 02:53 | Sereno | 26 | 24 | 88 | 1015 | 10 | E/NE 7.4 | |
| Oggi h: 01:53 | Sereno | 26 | 24 | 88 | 1015 | 10 | E/NE 9.3 | |
| Oggi h: 00:53 | Sereno | 26 | 24 | 88 | 1016 | 10 | N 5.5 | |
| Ieri h: 23:53 | Sereno | 27 | 24 | 83 | 1016 | 10 | N 0 | |
| Ieri h: 22:53 | Coperto | 27 | 25 | 88 | 1017 | 10 | N 0 | |
| Ieri h: 21:53 | Nuvoloso | 27 | 24 | 83 | 1016 | 10 | N 0 | |
| Ieri h: 20:53 | Pioggia | 27 | 24 | 83 | 1016 | 10 | N 0 | |
| Ieri h: 20:36 | Pioggia | 27 | 24 | 83 | 1016 | 10 | N 0 | |
| Ieri h: 19:53 | Temporale nelle vicinanze | 27 | 24 | 83 | 1016 | 10 | N 5.5 | |
| Ieri h: 19:29 | Temporale nelle vicinanze | 27 | 24 | 83 | 1016 | 10 | S 16.7 | |
| Ieri h: 19:12 | Temporale nelle vicinanze | 27 | 24 | 83 | 1015 | 10 | S/SE 16.7 | |
| Ieri h: 18:53 | Temporale nelle vicinanze | 28 | 24 | 78 | 1015 | 10 | S/SE 14.8 | |
| Ieri h: 18:43 | Temporale | 29 | 23 | 70 | 1015 | 10 | SE 20.3 | |
| Ieri h: 18:12 | Temporale nelle vicinanze | 31 | 23 | 62 | 1014 | 10 | E/NE 13 | |
| Ieri h: 17:53 | Poco Nuvoloso | 32 | 23 | 59 | 1014 | 10 | N/NE 18.5 | |
| Ieri h: 17:43 | Poco Nuvoloso | 32 | 23 | 59 | 1014 | 10 | E/NE 16.7 | |
| Ieri h: 17:32 | Temporale | 31 | 23 | 62 | 1014 | 10 | NE 16.7 | |
| Ieri h: 17:22 | Temporale nelle vicinanze | 31 | 23 | 62 | 1014 | 10 | NE 18.5 | |
| Ieri h: 16:53 | Poco Nuvoloso | 33 | 24 | 59 | 1014 | 10 | N/NO 16.7 | |
| Ieri h: 15:53 | Sereno | 34 | 23 | 52 | 1014 | 10 | NO 16.7 | |
| Ieri h: 14:53 | Nuvoloso | 32 | 22 | 55 | 1015 | 10 | N 5.5 | |



